sensor_id;sensor_type;location;lat;lon;timestamp;temperature;humidity
69054;DHT22;56125;52.242;4.756;2024-03-07T00:01:11;18.40;55.70
69054;DHT22;56125;52.242;4.756;2024-03-07T00:06:12;18.40;55.80
69054;DHT22;56125;52.242;4.756;2024-03-07T00:11:13;18.40;55.80
69054;DHT22;56125;52.242;4.756;2024-03-07T00:16:14;18.40;55.70
69054;DHT22;56125;52.242;4.756;2024-03-07T00:21:16;18.40;55.70
69054;DHT22;56125;52.242;4.756;2024-03-07T00:26:17;18.40;55.60
69054;DHT22;56125;52.242;4.756;2024-03-07T00:31:18;18.40;55.70
69054;DHT22;56125;52.242;4.756;2024-03-07T00:36:19;18.40;55.70
69054;DHT22;56125;52.242;4.756;2024-03-07T00:41:20;18.40;55.50
69054;DHT22;56125;52.242;4.756;2024-03-07T00:46:21;18.40;55.40
69054;DHT22;56125;52.242;4.756;2024-03-07T00:51:22;18.40;55.30
69054;DHT22;56125;52.242;4.756;2024-03-07T00:56:23;18.40;55.20
69054;DHT22;56125;52.242;4.756;2024-03-07T01:01:24;18.40;55.20
69054;DHT22;56125;52.242;4.756;2024-03-07T01:06:26;18.40;55.20
69054;DHT22;56125;52.242;4.756;2024-03-07T01:11:27;18.40;55.10
69054;DHT22;56125;52.242;4.756;2024-03-07T01:16:28;18.40;55.10
69054;DHT22;56125;52.242;4.756;2024-03-07T01:21:29;18.40;55.00
69054;DHT22;56125;52.242;4.756;2024-03-07T01:26:30;18.40;55.00
69054;DHT22;56125;52.242;4.756;2024-03-07T01:31:31;18.40;55.10
69054;DHT22;56125;52.242;4.756;2024-03-07T01:36:33;18.40;55.00
69054;DHT22;56125;52.242;4.756;2024-03-07T01:41:34;18.40;55.00
69054;DHT22;56125;52.242;4.756;2024-03-07T01:46:35;18.40;55.00
69054;DHT22;56125;52.242;4.756;2024-03-07T01:51:37;18.40;55.00
69054;DHT22;56125;52.242;4.756;2024-03-07T01:56:39;18.40;55.00
69054;DHT22;56125;52.242;4.756;2024-03-07T02:01:41;18.40;55.00
69054;DHT22;56125;52.242;4.756;2024-03-07T02:06:42;18.40;55.00
69054;DHT22;56125;52.242;4.756;2024-03-07T02:11:43;18.40;55.00
69054;DHT22;56125;52.242;4.756;2024-03-07T02:16:44;18.40;55.00
69054;DHT22;56125;52.242;4.756;2024-03-07T02:21:45;18.40;54.90
69054;DHT22;56125;52.242;4.756;2024-03-07T02:26:46;18.40;54.90
69054;DHT22;56125;52.242;4.756;2024-03-07T02:31:47;18.40;54.90
69054;DHT22;56125;52.242;4.756;2024-03-07T02:36:49;18.30;54.70
69054;DHT22;56125;52.242;4.756;2024-03-07T02:41:50;18.30;54.70
69054;DHT22;56125;52.242;4.756;2024-03-07T02:46:51;18.30;54.70
69054;DHT22;56125;52.242;4.756;2024-03-07T02:51:52;18.30;54.70
69054;DHT22;56125;52.242;4.756;2024-03-07T02:56:53;18.30;55.60
69054;DHT22;56125;52.242;4.756;2024-03-07T03:01:54;18.30;54.70
69054;DHT22;56125;52.242;4.756;2024-03-07T03:06:56;18.30;54.60
69054;DHT22;56125;52.242;4.756;2024-03-07T03:11:57;18.30;54.60
69054;DHT22;56125;52.242;4.756;2024-03-07T03:16:58;18.30;54.60
69054;DHT22;56125;52.242;4.756;2024-03-07T03:21:59;18.30;54.60
69054;DHT22;56125;52.242;4.756;2024-03-07T03:27:00;18.30;54.60
69054;DHT22;56125;52.242;4.756;2024-03-07T03:32:02;18.30;54.50
69054;DHT22;56125;52.242;4.756;2024-03-07T03:37:03;18.30;54.50
69054;DHT22;56125;52.242;4.756;2024-03-07T03:42:05;18.30;54.50
69054;DHT22;56125;52.242;4.756;2024-03-07T03:47:07;18.30;54.40
69054;DHT22;56125;52.242;4.756;2024-03-07T03:52:08;18.30;54.40
69054;DHT22;56125;52.242;4.756;2024-03-07T03:57:09;18.30;54.40
69054;DHT22;56125;52.242;4.756;2024-03-07T04:02:10;18.30;54.40
69054;DHT22;56125;52.242;4.756;2024-03-07T04:07:12;18.30;54.70
69054;DHT22;56125;52.242;4.756;2024-03-07T04:12:13;18.30;54.30
69054;DHT22;56125;52.242;4.756;2024-03-07T04:17:16;18.30;54.20
69054;DHT22;56125;52.242;4.756;2024-03-07T04:22:17;18.30;54.20
69054;DHT22;56125;52.242;4.756;2024-03-07T04:27:20;18.30;54.20
69054;DHT22;56125;52.242;4.756;2024-03-07T04:32:22;18.30;54.20
69054;DHT22;56125;52.242;4.756;2024-03-07T04:37:23;18.30;54.20
69054;DHT22;56125;52.242;4.756;2024-03-07T04:42:24;18.20;54.10
69054;DHT22;56125;52.242;4.756;2024-03-07T04:47:27;18.20;54.20
69054;DHT22;56125;52.242;4.756;2024-03-07T04:52:28;18.20;54.10
69054;DHT22;56125;52.242;4.756;2024-03-07T04:57:29;18.20;54.10
69054;DHT22;56125;52.242;4.756;2024-03-07T05:02:30;18.20;54.10
69054;DHT22;56125;52.242;4.756;2024-03-07T05:07:31;18.20;54.10
69054;DHT22;56125;52.242;4.756;2024-03-07T05:12:32;18.20;54.00
69054;DHT22;56125;52.242;4.756;2024-03-07T05:17:34;18.20;54.00
69054;DHT22;56125;52.242;4.756;2024-03-07T05:22:37;18.20;54.00
69054;DHT22;56125;52.242;4.756;2024-03-07T05:27:45;18.20;54.10
69054;DHT22;56125;52.242;4.756;2024-03-07T05:32:46;18.20;54.00
69054;DHT22;56125;52.242;4.756;2024-03-07T05:37:49;18.20;54.00
69054;DHT22;56125;52.242;4.756;2024-03-07T05:42:51;18.20;54.10
69054;DHT22;56125;52.242;4.756;2024-03-07T05:47:52;18.20;54.30
69054;DHT22;56125;52.242;4.756;2024-03-07T05:52:53;18.20;54.40
69054;DHT22;56125;52.242;4.756;2024-03-07T05:57:54;18.20;54.30
69054;DHT22;56125;52.242;4.756;2024-03-07T06:02:55;18.20;54.40
69054;DHT22;56125;52.242;4.756;2024-03-07T06:07:57;18.20;54.50
69054;DHT22;56125;52.242;4.756;2024-03-07T06:12:58;18.20;54.50
69054;DHT22;56125;52.242;4.756;2024-03-07T06:18:00;18.20;54.50
69054;DHT22;56125;52.242;4.756;2024-03-07T06:23:01;18.10;54.60
69054;DHT22;56125;52.242;4.756;2024-03-07T06:28:06;18.20;55.20
69054;DHT22;56125;52.242;4.756;2024-03-07T06:33:10;18.20;55.40
69054;DHT22;56125;52.242;4.756;2024-03-07T06:38:11;18.20;55.50
69054;DHT22;56125;52.242;4.756;2024-03-07T06:43:13;18.20;55.50
69054;DHT22;56125;52.242;4.756;2024-03-07T06:48:14;18.20;55.40
69054;DHT22;56125;52.242;4.756;2024-03-07T06:53:15;18.20;55.70
69054;DHT22;56125;52.242;4.756;2024-03-07T06:58:17;18.20;55.60
69054;DHT22;56125;52.242;4.756;2024-03-07T07:03:18;18.20;55.40
69054;DHT22;56125;52.242;4.756;2024-03-07T07:08:20;18.20;55.20
69054;DHT22;56125;52.242;4.756;2024-03-07T07:13:22;18.20;55.10
69054;DHT22;56125;52.242;4.756;2024-03-07T07:18:23;18.20;55.00
69054;DHT22;56125;52.242;4.756;2024-03-07T07:23:24;18.20;55.00
69054;DHT22;56125;52.242;4.756;2024-03-07T07:28:26;18.30;54.90
69054;DHT22;56125;52.242;4.756;2024-03-07T07:33:27;18.30;54.80
69054;DHT22;56125;52.242;4.756;2024-03-07T07:38:28;18.30;54.80
69054;DHT22;56125;52.242;4.756;2024-03-07T07:43:29;18.30;54.60
69054;DHT22;56125;52.242;4.756;2024-03-07T07:48:30;18.30;54.50
69054;DHT22;56125;52.242;4.756;2024-03-07T07:53:31;18.30;55.40
69054;DHT22;56125;52.242;4.756;2024-03-07T07:58:32;18.30;54.50
69054;DHT22;56125;52.242;4.756;2024-03-07T08:03:33;18.30;54.40
69054;DHT22;56125;52.242;4.756;2024-03-07T08:08:34;18.30;54.20
69054;DHT22;56125;52.242;4.756;2024-03-07T08:13:36;18.30;54.80
69054;DHT22;56125;52.242;4.756;2024-03-07T08:18:37;18.40;54.90
69054;DHT22;56125;52.242;4.756;2024-03-07T08:23:39;18.40;54.40
69054;DHT22;56125;52.242;4.756;2024-03-07T08:28:40;18.40;54.30
69054;DHT22;56125;52.242;4.756;2024-03-07T08:33:41;18.40;54.20
69054;DHT22;56125;52.242;4.756;2024-03-07T08:38:42;18.40;54.20
69054;DHT22;56125;52.242;4.756;2024-03-07T08:43:44;18.40;54.00
69054;DHT22;56125;52.242;4.756;2024-03-07T08:48:45;18.40;54.00
69054;DHT22;56125;52.242;4.756;2024-03-07T08:53:46;18.40;53.90
69054;DHT22;56125;52.242;4.756;2024-03-07T08:58:48;18.40;53.80
69054;DHT22;56125;52.242;4.756;2024-03-07T09:03:49;18.40;53.80
69054;DHT22;56125;52.242;4.756;2024-03-07T09:08:50;18.40;53.60
69054;DHT22;56125;52.242;4.756;2024-03-07T09:13:52;18.40;53.60
69054;DHT22;56125;52.242;4.756;2024-03-07T09:18:53;18.40;53.50
69054;DHT22;56125;52.242;4.756;2024-03-07T09:23:54;18.40;53.50
69054;DHT22;56125;52.242;4.756;2024-03-07T09:28:55;18.40;53.50
69054;DHT22;56125;52.242;4.756;2024-03-07T09:33:56;18.40;53.10
69054;DHT22;56125;52.242;4.756;2024-03-07T09:38:59;18.40;53.20
69054;DHT22;56125;52.242;4.756;2024-03-07T09:44:01;18.40;53.00
69054;DHT22;56125;52.242;4.756;2024-03-07T09:49:04;18.40;52.90
69054;DHT22;56125;52.242;4.756;2024-03-07T09:54:06;18.40;52.80
69054;DHT22;56125;52.242;4.756;2024-03-07T09:59:11;18.40;52.70
69054;DHT22;56125;52.242;4.756;2024-03-07T10:04:15;18.40;52.70
69054;DHT22;56125;52.242;4.756;2024-03-07T10:09:17;18.40;53.00
69054;DHT22;56125;52.242;4.756;2024-03-07T10:14:18;18.40;52.60
69054;DHT22;56125;52.242;4.756;2024-03-07T10:19:19;18.40;52.50
69054;DHT22;56125;52.242;4.756;2024-03-07T10:24:24;18.40;52.50
69054;DHT22;56125;52.242;4.756;2024-03-07T10:29:25;18.40;52.30
69054;DHT22;56125;52.242;4.756;2024-03-07T10:34:33;18.40;52.30
69054;DHT22;56125;52.242;4.756;2024-03-07T10:39:34;18.40;52.20
69054;DHT22;56125;52.242;4.756;2024-03-07T10:44:38;18.40;52.10
69054;DHT22;56125;52.242;4.756;2024-03-07T10:50:24;18.40;52.10
69054;DHT22;56125;52.242;4.756;2024-03-07T10:55:35;18.40;52.00
69054;DHT22;56125;52.242;4.756;2024-03-07T11:00:41;18.40;52.00
69054;DHT22;56125;52.242;4.756;2024-03-07T11:05:46;18.40;52.00
69054;DHT22;56125;52.242;4.756;2024-03-07T11:10:48;18.40;52.00
69054;DHT22;56125;52.242;4.756;2024-03-07T11:15:50;18.40;51.70
69054;DHT22;56125;52.242;4.756;2024-03-07T11:20:52;18.40;51.90
69054;DHT22;56125;52.242;4.756;2024-03-07T11:26:05;18.40;51.60
69054;DHT22;56125;52.242;4.756;2024-03-07T11:36:10;18.50;51.90
69054;DHT22;56125;52.242;4.756;2024-03-07T11:41:14;18.40;51.60
69054;DHT22;56125;52.242;4.756;2024-03-07T11:46:16;18.40;51.90
69054;DHT22;56125;52.242;4.756;2024-03-07T11:51:20;18.40;51.70
69054;DHT22;56125;52.242;4.756;2024-03-07T11:56:26;18.50;51.70
69054;DHT22;56125;52.242;4.756;2024-03-07T12:01:27;18.40;51.60
69054;DHT22;56125;52.242;4.756;2024-03-07T12:06:30;18.40;51.90
69054;DHT22;56125;52.242;4.756;2024-03-07T12:11:31;18.50;52.70
69054;DHT22;56125;52.242;4.756;2024-03-07T12:16:32;18.50;54.10
69054;DHT22;56125;52.242;4.756;2024-03-07T12:21:34;18.40;54.70
69054;DHT22;56125;52.242;4.756;2024-03-07T12:26:37;18.50;54.10
69054;DHT22;56125;52.242;4.756;2024-03-07T12:31:44;18.50;54.20
69054;DHT22;56125;52.242;4.756;2024-03-07T12:36:45;18.40;54.30
69054;DHT22;56125;52.242;4.756;2024-03-07T12:41:46;18.40;54.20
69054;DHT22;56125;52.242;4.756;2024-03-07T12:46:48;18.40;53.40
69054;DHT22;56125;52.242;4.756;2024-03-07T12:51:49;18.40;53.80
69054;DHT22;56125;52.242;4.756;2024-03-07T12:56:51;18.40;53.80
69054;DHT22;56125;52.242;4.756;2024-03-07T13:01:52;18.40;53.50
69054;DHT22;56125;52.242;4.756;2024-03-07T13:06:55;18.40;53.40
69054;DHT22;56125;52.242;4.756;2024-03-07T13:12:01;18.40;53.20
69054;DHT22;56125;52.242;4.756;2024-03-07T13:17:02;18.40;53.30
69054;DHT22;56125;52.242;4.756;2024-03-07T13:22:05;18.40;53.50
69054;DHT22;56125;52.242;4.756;2024-03-07T13:27:12;18.40;53.10
69054;DHT22;56125;52.242;4.756;2024-03-07T13:32:19;18.40;53.10
69054;DHT22;56125;52.242;4.756;2024-03-07T13:37:21;18.30;52.50
69054;DHT22;56125;52.242;4.756;2024-03-07T13:42:22;18.30;52.90
69054;DHT22;56125;52.242;4.756;2024-03-07T13:47:23;18.40;52.70
69054;DHT22;56125;52.242;4.756;2024-03-07T13:52:24;18.40;52.30
69054;DHT22;56125;52.242;4.756;2024-03-07T13:57:43;18.40;52.10
69054;DHT22;56125;52.242;4.756;2024-03-07T14:03:14;18.40;52.40
69054;DHT22;56125;52.242;4.756;2024-03-07T14:08:56;18.40;52.20
69054;DHT22;56125;52.242;4.756;2024-03-07T14:35:18;18.40;52.00
69054;DHT22;56125;52.242;4.756;2024-03-07T14:40:23;18.40;52.10
69054;DHT22;56125;52.242;4.756;2024-03-07T14:45:32;18.40;52.00
69054;DHT22;56125;52.242;4.756;2024-03-07T14:50:39;18.40;52.40
69054;DHT22;56125;52.242;4.756;2024-03-07T14:55:41;18.40;51.90
69054;DHT22;56125;52.242;4.756;2024-03-07T15:00:43;18.40;51.80
69054;DHT22;56125;52.242;4.756;2024-03-07T15:05:45;18.40;51.40
69054;DHT22;56125;52.242;4.756;2024-03-07T15:10:52;18.40;51.90
69054;DHT22;56125;52.242;4.756;2024-03-07T15:15:55;18.40;53.90
69054;DHT22;56125;52.242;4.756;2024-03-07T15:20:57;18.30;54.20
69054;DHT22;56125;52.242;4.756;2024-03-07T15:25:58;18.30;54.20
69054;DHT22;56125;52.242;4.756;2024-03-07T15:30:59;18.30;54.70
69054;DHT22;56125;52.242;4.756;2024-03-07T15:36:06;18.30;55.00
69054;DHT22;56125;52.242;4.756;2024-03-07T15:41:07;18.20;55.10
69054;DHT22;56125;52.242;4.756;2024-03-07T15:46:11;18.20;55.50
69054;DHT22;56125;52.242;4.756;2024-03-07T15:51:13;18.20;54.80
69054;DHT22;56125;52.242;4.756;2024-03-07T15:56:15;18.20;54.90
69054;DHT22;56125;52.242;4.756;2024-03-07T16:01:16;18.20;55.50
69054;DHT22;56125;52.242;4.756;2024-03-07T16:06:17;18.20;55.40
69054;DHT22;56125;52.242;4.756;2024-03-07T16:11:19;18.20;54.70
69054;DHT22;56125;52.242;4.756;2024-03-07T16:16:24;18.30;55.10
69054;DHT22;56125;52.242;4.756;2024-03-07T16:21:25;18.30;54.60
69054;DHT22;56125;52.242;4.756;2024-03-07T16:26:33;18.30;54.50
69054;DHT22;56125;52.242;4.756;2024-03-07T16:31:34;18.30;54.80
69054;DHT22;56125;52.242;4.756;2024-03-07T16:36:36;18.30;55.00
69054;DHT22;56125;52.242;4.756;2024-03-07T16:41:37;18.30;54.70
69054;DHT22;56125;52.242;4.756;2024-03-07T16:46:38;18.30;55.10
69054;DHT22;56125;52.242;4.756;2024-03-07T16:51:39;18.20;54.30
69054;DHT22;56125;52.242;4.756;2024-03-07T16:56:40;18.30;54.10
69054;DHT22;56125;52.242;4.756;2024-03-07T17:01:41;18.30;53.60
69054;DHT22;56125;52.242;4.756;2024-03-07T17:06:45;18.20;54.20
69054;DHT22;56125;52.242;4.756;2024-03-07T17:11:47;18.20;53.50
69054;DHT22;56125;52.242;4.756;2024-03-07T17:16:48;18.20;54.70
69054;DHT22;56125;52.242;4.756;2024-03-07T17:21:50;18.30;54.30
69054;DHT22;56125;52.242;4.756;2024-03-07T17:26:51;18.20;54.50
69054;DHT22;56125;52.242;4.756;2024-03-07T17:31:53;18.20;54.40
69054;DHT22;56125;52.242;4.756;2024-03-07T17:36:54;18.20;54.70
69054;DHT22;56125;52.242;4.756;2024-03-07T17:41:55;18.20;54.20
69054;DHT22;56125;52.242;4.756;2024-03-07T17:46:56;18.20;54.50
69054;DHT22;56125;52.242;4.756;2024-03-07T17:51:57;18.10;54.10
69054;DHT22;56125;52.242;4.756;2024-03-07T17:56:58;18.20;54.00
69054;DHT22;56125;52.242;4.756;2024-03-07T18:02:01;18.10;53.70
69054;DHT22;56125;52.242;4.756;2024-03-07T18:07:04;18.20;53.00
69054;DHT22;56125;52.242;4.756;2024-03-07T18:12:10;18.20;54.00
69054;DHT22;56125;52.242;4.756;2024-03-07T18:17:15;18.10;53.40
69054;DHT22;56125;52.242;4.756;2024-03-07T18:22:18;18.10;54.20
69054;DHT22;56125;52.242;4.756;2024-03-07T18:27:22;18.10;53.50
69054;DHT22;56125;52.242;4.756;2024-03-07T18:32:23;18.10;54.20
69054;DHT22;56125;52.242;4.756;2024-03-07T18:37:24;18.10;53.30
69054;DHT22;56125;52.242;4.756;2024-03-07T18:42:26;18.10;53.90
69054;DHT22;56125;52.242;4.756;2024-03-07T18:47:32;18.10;53.70
69054;DHT22;56125;52.242;4.756;2024-03-07T18:52:33;18.10;53.30
69054;DHT22;56125;52.242;4.756;2024-03-07T18:57:34;18.10;53.00
69054;DHT22;56125;52.242;4.756;2024-03-07T19:02:37;18.20;53.30
69054;DHT22;56125;52.242;4.756;2024-03-07T19:07:38;18.20;53.20
69054;DHT22;56125;52.242;4.756;2024-03-07T19:12:39;18.10;53.40
69054;DHT22;56125;52.242;4.756;2024-03-07T19:17:41;18.20;53.10
69054;DHT22;56125;52.242;4.756;2024-03-07T19:22:46;18.20;53.30
69054;DHT22;56125;52.242;4.756;2024-03-07T19:27:49;18.20;53.20
69054;DHT22;56125;52.242;4.756;2024-03-07T19:32:50;18.20;53.20
69054;DHT22;56125;52.242;4.756;2024-03-07T19:37:51;18.20;52.40
69054;DHT22;56125;52.242;4.756;2024-03-07T19:42:52;18.20;53.10
69054;DHT22;56125;52.242;4.756;2024-03-07T19:47:53;18.20;52.40
69054;DHT22;56125;52.242;4.756;2024-03-07T19:52:55;18.20;52.90
69054;DHT22;56125;52.242;4.756;2024-03-07T19:58:00;18.20;52.40
69054;DHT22;56125;52.242;4.756;2024-03-07T20:03:03;18.20;52.60
69054;DHT22;56125;52.242;4.756;2024-03-07T20:08:07;18.20;52.50
69054;DHT22;56125;52.242;4.756;2024-03-07T20:13:08;18.20;52.60
69054;DHT22;56125;52.242;4.756;2024-03-07T20:18:09;18.20;52.00
69054;DHT22;56125;52.242;4.756;2024-03-07T20:23:11;18.20;52.50
69054;DHT22;56125;52.242;4.756;2024-03-07T20:28:16;18.20;52.20
69054;DHT22;56125;52.242;4.756;2024-03-07T20:33:17;18.20;52.80
69054;DHT22;56125;52.242;4.756;2024-03-07T20:38:18;18.20;51.70
69054;DHT22;56125;52.242;4.756;2024-03-07T20:43:22;18.20;52.70
69054;DHT22;56125;52.242;4.756;2024-03-07T20:48:23;18.20;52.70
69054;DHT22;56125;52.242;4.756;2024-03-07T20:53:25;18.20;52.40
69054;DHT22;56125;52.242;4.756;2024-03-07T20:58:30;18.10;52.50
69054;DHT22;56125;52.242;4.756;2024-03-07T21:03:32;18.10;51.30
69054;DHT22;56125;52.242;4.756;2024-03-07T21:08:33;18.10;51.70
69054;DHT22;56125;52.242;4.756;2024-03-07T21:13:34;18.00;51.50
69054;DHT22;56125;52.242;4.756;2024-03-07T21:18:37;18.00;51.30
69054;DHT22;56125;52.242;4.756;2024-03-07T21:23:38;18.00;51.60
69054;DHT22;56125;52.242;4.756;2024-03-07T21:28:40;18.00;51.50
69054;DHT22;56125;52.242;4.756;2024-03-07T21:33:42;18.00;51.10
69054;DHT22;56125;52.242;4.756;2024-03-07T21:38:43;18.00;51.30
69054;DHT22;56125;52.242;4.756;2024-03-07T21:43:44;17.90;51.00
69054;DHT22;56125;52.242;4.756;2024-03-07T21:48:45;18.00;51.60
69054;DHT22;56125;52.242;4.756;2024-03-07T21:53:48;18.00;51.20
69054;DHT22;56125;52.242;4.756;2024-03-07T21:58:49;17.90;51.10
69054;DHT22;56125;52.242;4.756;2024-03-07T22:03:50;18.00;51.20
69054;DHT22;56125;52.242;4.756;2024-03-07T22:08:51;17.90;51.30
69054;DHT22;56125;52.242;4.756;2024-03-07T22:13:53;17.90;51.70
69054;DHT22;56125;52.242;4.756;2024-03-07T22:18:54;17.90;51.50
69054;DHT22;56125;52.242;4.756;2024-03-07T22:23:55;17.90;51.30
69054;DHT22;56125;52.242;4.756;2024-03-07T22:28:57;17.90;51.50
69054;DHT22;56125;52.242;4.756;2024-03-07T22:33:58;17.90;52.80
69054;DHT22;56125;52.242;4.756;2024-03-07T22:38:59;17.90;51.50
69054;DHT22;56125;52.242;4.756;2024-03-07T22:44:00;17.80;51.50
69054;DHT22;56125;52.242;4.756;2024-03-07T22:49:01;17.80;51.50
69054;DHT22;56125;52.242;4.756;2024-03-07T22:54:05;17.80;51.00
69054;DHT22;56125;52.242;4.756;2024-03-07T22:59:08;17.80;51.10
69054;DHT22;56125;52.242;4.756;2024-03-07T23:04:10;17.80;50.80
69054;DHT22;56125;52.242;4.756;2024-03-07T23:09:13;17.80;50.80
69054;DHT22;56125;52.242;4.756;2024-03-07T23:14:20;17.80;50.80
69054;DHT22;56125;52.242;4.756;2024-03-07T23:19:23;17.80;50.50
69054;DHT22;56125;52.242;4.756;2024-03-07T23:24:25;17.80;50.70
69054;DHT22;56125;52.242;4.756;2024-03-07T23:29:26;17.80;50.40
69054;DHT22;56125;52.242;4.756;2024-03-07T23:34:27;17.70;50.20
69054;DHT22;56125;52.242;4.756;2024-03-07T23:39:28;17.70;50.10
69054;DHT22;56125;52.242;4.756;2024-03-07T23:44:29;17.70;50.00
69054;DHT22;56125;52.242;4.756;2024-03-07T23:49:30;17.70;49.80
69054;DHT22;56125;52.242;4.756;2024-03-07T23:54:31;17.70;49.80
69054;DHT22;56125;52.242;4.756;2024-03-07T23:59:32;17.70;50.00
